Ulugbek Ahmedov

Ojeador - Lokomotiv
22 Feb 2028
Martes
Continuar

Personalidad

Adaptabilidad (1) Ambición (18) Controversia (2) Lealtad (15) Presión (2) Profesionalismo (5) Deportividad (11) Temperamento (12)

Perfil

Estilo de dirección Democrático
Licencia Nacional A
Determinación 3
Gestión de personas 6
Motivación 7
Disciplina 11
Satisfacción laboral
100%
Fatiga
0%
Cargo Ojeador
Salario 27.5K p/s
Contrato 14.03.2029

Rendimiento

Comportamiento Bueno
Efectividad del entrenamiento
52%
Desarrollo de jugadores
40%
Prevención de lesiones
40%
Implementación táctica
50%

Eventos recientes

Evaluó a un jugador ahora
Evaluó a un jugador 7d atrás
Asistió a una reunión de captación 7d atrás
Evaluó a un jugador 7d atrás
Evaluó a un jugador 7d atrás
Evaluó a un jugador 7d atrás
Evaluó a un jugador 7d atrás
Evaluó a un jugador 14d atrás

Actualmente siguiendo

181
Jugador Club Estado Habilidad Confianza Observado Última observación Último voto
Tigran Avanesyan Arsenal Tula Activo 93 / 99 40% 1 21.02.2028 -
Gleb Shevchenko Torpedo Moscow Activo 109 / 118 40% 1 21.02.2028 -
David Nieland Sambenedettese Activo 102 / 108 40% 1 21.02.2028 -
Brandon Hanlan Doncaster Rovers Activo 88 / 116 40% 1 21.02.2028 -
Georgy Gongadze Ufa Activo 112 / 89 40% 2 20.02.2028 -
Alexey Kashtanov Sochi Activo 98 / 98 40% 1 20.02.2028 -
François Kamano Sochi Activo 108 / 118 40% 3 17.02.2028 -
Asadbek Sobirjonov AGMK Activo 120 / 106 40% 1 17.02.2028 -
Stefan Kovač Baltika Activo 120 / 121 40% 1 17.02.2028 -
Lachlan Rose Newcastle Jets Activo 90 / 107 40% 1 17.02.2028 -
Mario Ćurić Torpedo Moscow Activo 91 / 116 40% 2 15.02.2028 -
Konstantin Kuchinskiy Minsk Activo 110 / 86 40% 1 15.02.2028 -
Maxim Shnaptsev Baltika Activo 108 / 113 40% 3 14.02.2028 -
David Kokoev Yenisey Activo 115 / 106 40% 2 14.02.2028 -
Darko Todorović Fakel Activo 117 / 105 40% 1 11.02.2028 -
Alexey Antilevskiy Slavia Mozyr Activo 82 / 89 40% 4 10.02.2028 -
Artur Murza Volga Activo 100 / 84 40% 2 10.02.2028 -
Srđan Babić Nizhniy Novgorod Activo 141 / 122 40% 1 10.02.2028 -
Pablo Álvarez Aktobe Activo 121 / 113 40% 1 10.02.2028 -
Júlio Romão Akhmat Grozny Activo 133 / 119 40% 1 09.02.2028 -
Jani Atanasov Aktobe Activo 103 / 111 40% 2 08.02.2028 -
Nichita Moțpan SKA Khabarovsk Activo 102 / 112 40% 1 08.02.2028 -
Alexey Berdnikov Chelyabinsk Activo 111 / 106 40% 1 08.02.2028 -
Alexandr Ivankov Torpedo Moscow Activo 120 / 110 40% 1 07.02.2028 -
Dani Fernández Krylya Sovetov Activo 112 / 102 40% 1 07.02.2028 -
Maxime Sivis Orenburg Activo 110 / 115 40% 4 06.02.2028 -
Daniil Motorin Rubin Activo 88 / 104 40% 2 06.02.2028 -
Alexandr Lomovitskiy Torpedo-BelAZ Activo 102 / 99 40% 1 06.02.2028 -
Teruki Hara Nagoya Grampus Activo 117 / 122 40% 1 06.02.2028 -
Carlos Torres Orenburg Activo 107 / 97 40% 5 05.02.2028 -
Facundo Lescano Salernitana Activo 121 / 127 40% 2 05.02.2028 -
Luca Vido Union Brescia Activo 99 / 116 40% 1 05.02.2028 -
Brayan Alcócer Rubin Activo 97 / 110 40% 1 05.02.2028 -
Andrey Nikitin Neftekhimik Activo 118 / 87 40% 1 04.02.2028 -
Garrik Levin Chelyabinsk Activo 124 / 107 40% 1 04.02.2028 -
Manuele Malotti Livorno Activo 98 / 97 40% 1 03.02.2028 -
Daniel Udoh Salford City Activo 103 / 113 40% 1 03.02.2028 -
Marc Gual Kairat Activo 118 / 123 40% 2 01.02.2028 -
Esteban da Silva Racing Activo 121 / 116 40% 3 01.02.2028 -
Rustam Khalnazarov Rostov Activo 91 / 94 40% 2 31.01.2028 -
Nikolay Poyarkov Rotor Activo 116 / 112 40% 1 31.01.2028 -
Enzo Trinidad Colegiales Activo 111 / 117 40% 2 30.01.2028 -
Stefan Lončar Akron Activo 136 / 117 40% 1 30.01.2028 -
Vladislav Sarveli Nizhniy Novgorod Activo 104 / 120 40% 3 29.01.2028 -
Islamzhan Nasyrov Ryazan Activo 77 / 88 40% 1 29.01.2028 -
Franco Camargo Gimnasia y Esgrima Activo 125 / 103 40% 1 28.01.2028 -
Gustavo Viera Cerro Largo Activo 99 / 104 40% 2 27.01.2028 -
Nicolás Garayalde Liverpool Montevideo Activo 138 / 128 40% 1 27.01.2028 -
Nermin Haljeta PSIM Activo 104 / 105 40% 1 27.01.2028 -
Nnamdi Ahanonu Astana Activo 111 / 96 40% 1 27.01.2028 -
Sergey Volkov Isloch Activo 108 / 85 40% 3 26.01.2028 -
David Ankeye Zeleznicar Pancevo Activo 106 / 115 40% 2 26.01.2028 -
Francisco Maidana Gimnasia y Esgrima Activo 129 / 117 40% 1 26.01.2028 -
Ansor Khabibov Ryazan Activo 101 / 98 40% 1 24.01.2028 -
Krasian Kolev Chernomorets Activo 102 / 94 40% 1 24.01.2028 -
Maico Quiroz Güemes Activo 104 / 103 40% 1 23.01.2028 -
Ivan Martynovich Lokomotiv Gomel Activo 77 / 73 40% 1 23.01.2028 -
Santiago Sala Güemes Activo 130 / 113 40% 4 22.01.2028 -
Léo Natel Ordabasy Activo 108 / 121 40% 7 22.01.2028 -
Agustín Gallo Tristán Suárez Activo 115 / 110 40% 5 22.01.2028 -
Stanislav Topinka Sochi Activo 83 / 92 40% 1 22.01.2028 -
Jasur Yoqubov Kokand 1912 Activo 84 / 95 40% 1 22.01.2028 -
Maxim Sidorov Akhmat Grozny Activo 92 / 100 40% 1 20.01.2028 -
Svyatoslav Kozhedub Volga Activo 77 / 109 40% 1 20.01.2028 -
Jhoao Rodríguez Deportes Quindio Activo 98 / 110 40% 1 20.01.2028 -
Dostonbek Hamdamov Pakhtakor Activo 115 / 113 40% 1 19.01.2028 -
Kianz Froese Semen Padang Activo 95 / 95 40% 2 18.01.2028 -
José Mercado Union Magdalena Activo 129 / 117 40% 1 18.01.2028 -
Jorman Campuzano Atletico Nacional Activo 121 / 120 40% 1 18.01.2028 -
Marco Miori Alvarado Activo 107 / 109 40% 1 18.01.2028 -
Luka Čumić PSM Activo 101 / 99 40% 1 17.01.2028 -
Sergey Sazonchik Arsenal Dzerzhinsk Activo 105 / 91 40% 1 16.01.2028 -
Umar Adhamzoda Navbahor Activo 108 / 106 40% 1 16.01.2028 -
Alexandr Saplinov Volga Activo 96 / 105 40% 2 15.01.2028 -
Ramazan Gadjimuradov Chelyabinsk Activo 127 / 107 40% 1 15.01.2028 -
Alexandr Osipov Sochi Activo 112 / 102 40% 2 14.01.2028 -
Artur Galoyan Torpedo Moscow Activo 117 / 105 40% 1 14.01.2028 -
Anderson Gutiérrez Chelyabinsk Activo 113 / 97 40% 1 14.01.2028 -
Ivar Jenner Dewa United Activo 115 / 119 40% 1 14.01.2028 -
Maxim Vedeneev Metallurg Activo 91 / 90 40% 1 13.01.2028 -
Vladislav Zhuravlev Isloch Activo 91 / 87 40% 1 13.01.2028 -
Ruslan Cherviakov Spartak Kostroma Activo 101 / 101 40% 1 12.01.2028 -
Alexandr Ektov Nizhniy Novgorod Activo 99 / 114 40% 1 12.01.2028 -
Genaro Rossi San Martín SJ Activo 94 / 116 40% 1 12.01.2028 -
Kirill Moiseev Rostov Activo 93 / 105 40% 1 10.01.2028 -
Lautaro Villegas Banfield Activo 125 / 107 40% 1 10.01.2028 -
Lucas Pedraza Defensores Unidos Activo 104 / 114 40% 4 09.01.2028 -
Abel Argañaraz Gimnasia y Esgrima Activo 102 / 93 40% 3 09.01.2028 -
Mohamed Konaté Nizhniy Novgorod Activo 118 / 125 40% 2 08.01.2028 -
Gleb Gurban Dinamo Minsk Activo 116 / 107 40% 1 07.01.2028 -
Martin Sekulić Ural Activo 125 / 113 40% 1 07.01.2028 -
Dylan Cabral Arsenal Activo 81 / 107 40% 1 06.01.2028 -
Thiago López Almagro Activo 127 / 115 40% 1 03.01.2028 -
Danil Novikov Volga Activo 89 / 93 40% 1 03.01.2028 -
Walter Juárez Güemes Activo 107 / 120 40% 1 03.01.2028 -
Sebastián Cocimano Nueva Chicago Activo 115 / 118 40% 7 02.01.2028 -
Elías Ayala Madryn Activo 123 / 107 40% 2 02.01.2028 -
Julián Cosi Madryn Rechazado 121 / 119 67% 2 02.01.2028 Observar
Juan Pablo Barinaga Patronato Activo 124 / 124 40% 1 02.01.2028 -
Cristian Graciano Junior Activo 99 / 110 40% 1 02.01.2028 -
Abrorbek Toshqo'ziev Shortan Activo 85 / 102 48% 1 01.01.2028 -
Ramón González Almirante Brown Activo 123 / 109 40% 1 31.12.2027 -
Vladislav Melko Torpedo-BelAZ Activo 91 / 95 40% 1 31.12.2027 -
Javier Martínez Almirante Brown Activo 123 / 113 40% 3 30.12.2027 -
Oswaldo Valencia Arema Activo 113 / 94 40% 4 29.12.2027 -
Solly Khunyedi Nasaf Activo 93 / 109 40% 2 29.12.2027 -
Abylaikhan Zhūmabek Atyrau Activo 112 / 96 40% 1 29.12.2027 -
David Karaev KAMAZ Activo 104 / 93 40% 1 28.12.2027 -
Adrián Dalmau PSIM Activo 119 / 103 40% 1 28.12.2027 -
Misael Sosa Godoy Cruz Activo 127 / 112 40% 3 26.12.2027 -
Oluwabori Falaye Irtysh Activo 103 / 95 40% 2 25.12.2027 -
David Davidyan Rotor Activo 96 / 104 40% 1 25.12.2027 -
David Kobesov Sapovnela Activo 91 / 79 40% 1 25.12.2027 -
Santiago Apa All Boys Activo 122 / 110 40% 3 23.12.2027 -
Leon Sabua Fakel Activo 117 / 109 40% 1 23.12.2027 -
Leonel Barrios Talleres Activo 96 / 89 40% 3 22.12.2027 -
Andrés Dieppa Metalurh Zaporizhzhia Activo 99 / 104 40% 1 22.12.2027 -
Gianluca Pugliese Güemes Activo 124 / 114 40% 1 22.12.2027 -
Gustavo Rodriguez Valledupar Activo 117 / 106 40% 2 21.12.2027 -
Roman Paparyga Qizilqum Activo 94 / 99 40% 2 21.12.2027 -
Doniyor Hasanov Obod Activo 92 / 79 40% 1 20.12.2027 -
Naoufel Zerhouni Persib Activo 115 / 105 40% 3 18.12.2027 -
Steven Alfred Torpedo-BelAZ Activo 93 / 112 40% 5 18.12.2027 -
Juan Rocca Gimnasia y Tiro Activo 112 / 100 40% 2 18.12.2027 -
Yusuf Otubanjo Nasaf Activo 126 / 109 40% 5 17.12.2027 -
Alexander Jeremejeff Persija Activo 108 / 118 40% 3 17.12.2027 -
Lucas Carrizo Plaza Colonia Activo 105 / 125 40% 4 17.12.2027 -
Artur Shushenachev Aktobe Activo 103 / 106 40% 5 17.12.2027 -
Matías Samaniego Talleres Activo 113 / 94 40% 2 16.12.2027 -
Mateo Bajamich Atlético Tucumán Activo 105 / 130 40% 1 15.12.2027 -
Dmitry Tsypchenko Torpedo Moscow Activo 112 / 119 40% 1 15.12.2027 -
Kamran Aliev SKA Khabarovsk Activo 89 / 101 40% 1 14.12.2027 -
Fernando Bersano Madryn Activo 96 / 124 40% 2 10.12.2027 -
Matías Tissera Instituto Activo 116 / 115 40% 1 10.12.2027 -
Matija Krivokapić Bunyodkor Activo 88 / 96 40% 1 09.12.2027 -
Augusto Berrondo Tristán Suárez Activo 101 / 115 40% 4 08.12.2027 -
Kirill Zinovich Dinamo Makhachkala Activo 78 / 95 40% 1 08.12.2027 -
Nicolás Fernández Maipú Activo 94 / 114 40% 1 07.12.2027 -
Saidavzalxon Ahrorov AGMK Activo 91 / 103 40% 1 07.12.2027 -
Cristian Rivas Bogota Activo 113 / 112 40% 1 06.12.2027 -
Konstantin Kovalev Volga Activo 115 / 87 40% 1 06.12.2027 -
Nicolás Heiz Maipú Activo 108 / 112 40% 3 03.12.2027 -
Santiago Rodríguez Gimnasia y Esgrima Activo 104 / 112 40% 1 03.12.2027 -
Kerfala Cissoko Rodina Activo 87 / 99 40% 1 03.12.2027 -
Uroš Kojić AGMK Activo 105 / 101 40% 2 01.12.2027 -
Jort van der Sande Bali United Activo 114 / 105 40% 2 30.11.2027 -
Ayman Sellouf Persija Activo 112 / 96 40% 3 26.11.2027 -
Said Aliev Rotor Activo 87 / 108 40% 1 26.11.2027 -
Luka Đorđević Sogdiana Activo 101 / 105 40% 2 23.11.2027 -
Lucas Monzón Alvarado Activo 122 / 107 40% 1 21.11.2027 -
Oralkhan Ömirtaev Okzhetpes Activo 89 / 102 40% 1 20.11.2027 -
Adrián Balboa Sarmiento Activo 137 / 108 40% 1 18.11.2027 -
Alexandr Dolgov Amkar Activo 102 / 85 40% 2 17.11.2027 -
Evgeniy Shevchenko Slavia Mozyr Activo 77 / 102 40% 1 17.11.2027 -
Vladislav Fedosov Slutsk Activo 86 / 92 40% 1 16.11.2027 -
Abdoulaye Diarra Bali United Activo 93 / 99 40% 1 12.11.2027 -
Andrey Solovey Slavia Mozyr Activo 112 / 103 40% 2 05.11.2027 -
Jesús Amarilla Naftan Activo 91 / 100 40% 1 02.11.2027 -
Kirill Kirilenko Dnepr Mogilev Activo 86 / 98 40% 2 01.11.2027 -
Anton Fase PSIM Activo 115 / 102 40% 3 31.10.2027 -
Maksym Shevchenko Baranovichi Activo 68 / 95 40% 2 30.10.2027 -
Sudi Abdallah Persijap Activo 85 / 96 40% 1 26.10.2027 -
Nikita Golub Belshina Activo 70 / 95 40% 2 23.10.2027 -
Brian Fernández Banfield Activo 103 / 114 40% 2 21.10.2027 -
Bruno Nasta San Miguel Activo 97 / 117 40% 1 20.10.2027 -
Zoran Marušić Neftchi Activo 108 / 114 40% 2 11.10.2027 -
Juan Mendoza Güemes Activo 96 / 114 40% 1 10.10.2027 -
Daouda Natama Minsk Activo 97 / 104 40% 1 10.10.2027 -
Luca Franco Arsenal Activo 91 / 107 40% 1 04.10.2027 -
Jhonatan Candia Barracas Central Activo 134 / 115 40% 1 02.10.2027 -
Ignacio Valsangiácomo Racing Activo 85 / 99 40% 1 01.10.2027 -
Facundo Castelli Estudiantes Activo 103 / 119 40% 1 29.09.2027 -
Valeriy Gorbachik Arsenal Dzerzhinsk Activo 90 / 87 40% 1 17.09.2027 -
Ignacio Colombini Talleres Activo 113 / 93 40% 2 08.09.2027 -
Yehor Kondratiuk Kokand 1912 Activo 103 / 97 40% 1 03.09.2027 -
Nikola Burić Astana Activo 107 / 98 40% 1 02.09.2027 -
Alan Bonansea Colón Activo 103 / 121 40% 1 01.09.2027 -
Egor Yuschenko Volna Pinsk Activo 87 / 81 40% 1 31.08.2027 -
Bahodir Halilov Nasaf Activo 85 / 83 48% 1 30.08.2027 -
Samandar Shukurullayev Qizilqum Activo 112 / 105 41% 1 10.08.2026 -
Egor Kress BATE Activo 88 / 102 40% 1 02.08.2026 -